Time,TemperatureF,DewpointF,PressureIn,WindDirection,WindDirectionDegrees,WindSpeedMPH,WindSpeedGustMPH,Humidity,HourlyPrecipIn,Conditions,Clouds,dailyrainin,SoftwareType,DateUTC
2013-06-25 00:01:00,69.6,66.5,30.11,SE,125,0.0,-999.0,90,0.00,,,0.00,Wunderground v.1.12,2013-06-25 04:01:00,
2013-06-25 00:03:00,69.4,66.3,30.11,SE,125,0.0,-999.0,90,0.00,,,0.00,Wunderground v.1.12,2013-06-25 04:03:00,
2013-06-25 00:05:00,69.4,66.7,30.11,SE,125,0.0,-999.0,91,0.00,,,0.00,Wunderground v.1.12,2013-06-25 04:05:00,
2013-06-25 00:08:00,69.4,66.7,30.11,SE,125,0.0,-999.0,91,0.00,,,0.00,Wunderground v.1.12,2013-06-25 04:08:00,
2013-06-25 00:09:00,69.4,66.7,30.11,SE,125,0.0,-999.0,91,0.00,,,0.00,Wunderground v.1.12,2013-06-25 04:09:00,
2013-06-25 00:15:00,69.4,66.7,30.11,SE,125,0.0,-999.0,91,0.00,,,0.00,Wunderground v.1.12,2013-06-25 04:15:00,
2013-06-25 00:20:00,69.3,66.6,30.11,SE,125,0.0,-999.0,91,0.00,,,0.00,Wunderground v.1.12,2013-06-25 04:20:00,
2013-06-25 00:26:00,69.3,66.6,30.11,SE,125,0.0,-999.0,91,0.00,,,0.00,Wunderground v.1.12,2013-06-25 04:26:00,
2013-06-25 00:31:00,69.3,66.6,30.11,SE,125,0.0,-999.0,91,0.00,,,0.00,Wunderground v.1.12,2013-06-25 04:31:00,
2013-06-25 00:38:00,69.1,66.4,30.11,SE,125,0.0,-999.0,91,0.00,,,0.00,Wunderground v.1.12,2013-06-25 04:38:00,
2013-06-25 00:43:00,69.1,66.4,30.12,SE,125,0.0,-999.0,91,0.00,,,0.00,Wunderground v.1.12,2013-06-25 04:43:00,
2013-06-25 00:48:00,68.9,66.2,30.12,SE,125,0.0,-999.0,91,0.00,,,0.00,Wunderground v.1.12,2013-06-25 04:48:00,
2013-06-25 00:54:00,68.9,66.2,30.12,SE,125,0.0,-999.0,91,0.00,,,0.00,Wunderground v.1.12,2013-06-25 04:54:00,
2013-06-25 00:59:00,68.9,66.2,30.12,SE,125,0.0,-999.0,91,0.00,,,0.00,Wunderground v.1.12,2013-06-25 04:59:00,
2013-06-25 01:05:00,68.8,66.1,30.12,SE,125,0.0,-999.0,91,0.00,,,0.00,Wunderground v.1.12,2013-06-25 05:05:00,
2013-06-25 01:10:00,68.8,66.1,30.12,SE,125,0.0,-999.0,91,0.00,,,0.00,Wunderground v.1.12,2013-06-25 05:10:00,
2013-06-25 01:15:00,68.6,65.9,30.12,SE,125,0.0,-999.0,91,0.00,,,0.00,Wunderground v.1.12,2013-06-25 05:15:00,
2013-06-25 01:21:00,68.6,65.9,30.12,SE,125,0.0,-999.0,91,0.00,,,0.00,Wunderground v.1.12,2013-06-25 05:21:00,
2013-06-25 01:26:00,68.4,65.7,30.11,SE,125,0.0,-999.0,91,0.00,,,0.00,Wunderground v.1.12,2013-06-25 05:26:00,
2013-06-25 01:31:00,68.4,65.7,30.11,SE,125,0.0,-999.0,91,0.00,,,0.00,Wunderground v.1.12,2013-06-25 05:31:00,
2013-06-25 01:38:00,68.4,65.7,30.11,SE,125,0.0,-999.0,91,0.00,,,0.00,Wunderground v.1.12,2013-06-25 05:38:00,
2013-06-25 01:43:00,68.3,65.9,30.11,SE,125,0.0,-999.0,92,0.00,,,0.00,Wunderground v.1.12,2013-06-25 05:43:00,
2013-06-25 01:49:00,68.3,65.9,30.11,SE,125,0.0,-999.0,92,0.00,,,0.00,Wunderground v.1.12,2013-06-25 05:49:00,
2013-06-25 01:54:00,68.3,65.9,30.10,SE,125,0.0,-999.0,92,0.00,,,0.00,Wunderground v.1.12,2013-06-25 05:54:00,
2013-06-25 01:59:00,68.3,65.9,30.10,SE,125,0.0,-999.0,92,0.00,,,0.00,Wunderground v.1.12,2013-06-25 05:59:00,
2013-06-25 02:05:00,68.1,65.7,30.10,SE,125,0.0,-999.0,92,0.00,,,0.00,Wunderground v.1.12,2013-06-25 06:05:00,
2013-06-25 02:10:00,68.1,65.7,30.11,SE,125,0.0,-999.0,92,0.00,,,0.00,Wunderground v.1.12,2013-06-25 06:10:00,
2013-06-25 02:15:00,68.1,65.7,30.11,SE,125,0.0,-999.0,92,0.00,,,0.00,Wunderground v.1.12,2013-06-25 06:15:00,
2013-06-25 02:20:00,67.9,65.5,30.11,SE,125,0.0,-999.0,92,0.00,,,0.00,Wunderground v.1.12,2013-06-25 06:20:00,
2013-06-25 02:25:00,67.9,65.5,30.10,SE,125,0.0,-999.0,92,0.00,,,0.00,Wunderground v.1.12,2013-06-25 06:25:00,
2013-06-25 02:30:00,67.8,65.4,30.10,SE,125,0.0,-999.0,92,0.00,,,0.00,Wunderground v.1.12,2013-06-25 06:30:00,
2013-06-25 02:35:00,67.8,65.4,30.10,SE,125,0.0,-999.0,92,0.00,,,0.00,Wunderground v.1.12,2013-06-25 06:35:00,
2013-06-25 02:40:00,67.8,65.4,30.11,SE,125,0.0,-999.0,92,0.00,,,0.00,Wunderground v.1.12,2013-06-25 06:40:00,
2013-06-25 02:45:00,67.8,65.4,30.11,SE,125,0.0,-999.0,92,0.00,,,0.00,Wunderground v.1.12,2013-06-25 06:45:00,
2013-06-25 02:50:00,67.8,65.4,30.11,SE,125,0.0,-999.0,92,0.00,,,0.00,Wunderground v.1.12,2013-06-25 06:50:00,
2013-06-25 02:55:00,67.8,65.4,30.10,SE,125,0.0,-999.0,92,0.00,,,0.00,Wunderground v.1.12,2013-06-25 06:55:00,
2013-06-25 03:00:00,67.8,65.4,30.10,SE,125,0.0,-999.0,92,0.00,,,0.00,Wunderground v.1.12,2013-06-25 07:00:00,
2013-06-25 03:05:00,67.6,65.2,30.10,SE,125,0.0,-999.0,92,0.00,,,0.00,Wunderground v.1.12,2013-06-25 07:05:00,
2013-06-25 03:10:00,67.6,65.2,30.10,SE,125,0.0,-999.0,92,0.00,,,0.00,Wunderground v.1.12,2013-06-25 07:10:00,
2013-06-25 03:15:00,67.6,65.2,30.10,SE,125,0.0,-999.0,92,0.00,,,0.00,Wunderground v.1.12,2013-06-25 07:15:00,
2013-06-25 03:20:00,67.6,65.2,30.10,SE,125,0.0,-999.0,92,0.00,,,0.00,Wunderground v.1.12,2013-06-25 07:20:00,
2013-06-25 03:25:00,67.4,65.0,30.09,SE,125,0.0,-999.0,92,0.00,,,0.00,Wunderground v.1.12,2013-06-25 07:25:00,
2013-06-25 03:30:00,67.4,65.0,30.09,SE,125,0.0,-999.0,92,0.00,,,0.00,Wunderground v.1.12,2013-06-25 07:30:00,
2013-06-25 03:35:00,67.3,64.9,30.09,SE,125,0.0,-999.0,92,0.00,,,0.00,Wunderground v.1.12,2013-06-25 07:35:00,
2013-06-25 03:40:00,67.3,64.9,30.08,SE,125,0.0,-999.0,92,0.00,,,0.00,Wunderground v.1.12,2013-06-25 07:40:00,
2013-06-25 03:45:00,67.3,64.9,30.08,SE,125,0.0,-999.0,92,0.00,,,0.00,Wunderground v.1.12,2013-06-25 07:45:00,
2013-06-25 03:50:00,67.3,64.9,30.08,SE,125,0.0,-999.0,92,0.00,,,0.00,Wunderground v.1.12,2013-06-25 07:50:00,
2013-06-25 03:55:00,67.3,64.9,30.09,SE,125,0.0,-999.0,92,0.00,,,0.00,Wunderground v.1.12,2013-06-25 07:55:00,
2013-06-25 04:01:00,67.1,64.7,30.09,SE,125,0.0,-999.0,92,0.00,,,0.00,Wunderground v.1.12,2013-06-25 08:01:00,
2013-06-25 04:06:00,67.1,64.7,30.09,SE,125,0.0,-999.0,92,0.00,,,0.00,Wunderground v.1.12,2013-06-25 08:06:00,
2013-06-25 04:11:00,67.1,64.7,30.09,SE,125,0.0,-999.0,92,0.00,,,0.00,Wunderground v.1.12,2013-06-25 08:11:00,
2013-06-25 04:16:00,67.1,64.7,30.09,SE,125,0.0,-999.0,92,0.00,,,0.00,Wunderground v.1.12,2013-06-25 08:16:00,
2013-06-25 04:21:00,67.1,64.7,30.09,SE,125,0.0,-999.0,92,0.00,,,0.00,Wunderground v.1.12,2013-06-25 08:21:00,
2013-06-25 04:26:00,67.1,64.7,30.09,SE,125,0.0,-999.0,92,0.00,,,0.00,Wunderground v.1.12,2013-06-25 08:26:00,
2013-06-25 04:31:00,66.9,64.5,30.09,SE,125,0.0,-999.0,92,0.00,,,0.00,Wunderground v.1.12,2013-06-25 08:31:00,
2013-06-25 04:36:00,66.9,64.5,30.09,SE,125,0.0,-999.0,92,0.00,,,0.00,Wunderground v.1.12,2013-06-25 08:36:00,
2013-06-25 04:41:00,66.9,64.5,30.09,SE,125,0.0,-999.0,92,0.00,,,0.00,Wunderground v.1.12,2013-06-25 08:41:00,
2013-06-25 04:46:00,66.9,64.5,30.09,SE,125,0.0,-999.0,92,0.00,,,0.00,Wunderground v.1.12,2013-06-25 08:46:00,
2013-06-25 04:51:00,67.1,65.0,30.09,SE,125,0.0,-999.0,93,0.00,,,0.00,Wunderground v.1.12,2013-06-25 08:51:00,
2013-06-25 04:56:00,67.1,65.0,30.09,SE,125,0.0,-999.0,93,0.00,,,0.00,Wunderground v.1.12,2013-06-25 08:56:00,
2013-06-25 05:01:00,67.1,65.0,30.09,SE,125,0.0,-999.0,93,0.00,,,0.00,Wunderground v.1.12,2013-06-25 09:01:00,
2013-06-25 05:06:00,67.1,65.0,30.09,SE,125,0.0,-999.0,93,0.00,,,0.00,Wunderground v.1.12,2013-06-25 09:06:00,
2013-06-25 05:11:00,67.1,65.0,30.09,SE,125,0.0,-999.0,93,0.00,,,0.00,Wunderground v.1.12,2013-06-25 09:11:00,
2013-06-25 05:16:00,67.1,65.0,30.09,SE,125,0.0,-999.0,93,0.00,,,0.00,Wunderground v.1.12,2013-06-25 09:16:00,
2013-06-25 05:21:00,67.3,65.2,30.09,SE,125,0.0,-999.0,93,0.00,,,0.00,Wunderground v.1.12,2013-06-25 09:21:00,
2013-06-25 05:26:00,67.3,65.2,30.09,SE,125,0.0,-999.0,93,0.00,,,0.00,Wunderground v.1.12,2013-06-25 09:26:00,
2013-06-25 05:31:00,67.4,65.3,30.09,SE,125,0.0,-999.0,93,0.00,,,0.00,Wunderground v.1.12,2013-06-25 09:31:00,
2013-06-25 05:36:00,67.4,65.3,30.09,SE,125,0.0,-999.0,93,0.00,,,0.00,Wunderground v.1.12,2013-06-25 09:36:00,
2013-06-25 05:41:00,67.6,65.5,30.10,SE,125,0.0,-999.0,93,0.00,,,0.00,Wunderground v.1.12,2013-06-25 09:41:00,
2013-06-25 05:46:00,67.6,65.5,30.10,SE,125,0.0,-999.0,93,0.00,,,0.00,Wunderground v.1.12,2013-06-25 09:46:00,
2013-06-25 05:51:00,67.6,65.5,30.10,SE,125,0.0,-999.0,93,0.00,,,0.00,Wunderground v.1.12,2013-06-25 09:51:00,
2013-06-25 05:56:00,67.8,66.0,30.10,SE,125,0.0,-999.0,94,0.00,,,0.00,Wunderground v.1.12,2013-06-25 09:56:00,
2013-06-25 06:01:00,67.8,65.7,30.10,SE,125,0.0,-999.0,93,0.00,,,0.00,Wunderground v.1.12,2013-06-25 10:01:00,
2013-06-25 06:06:00,67.9,66.1,30.10,SE,125,0.0,-999.0,94,0.00,,,0.00,Wunderground v.1.12,2013-06-25 10:06:00,
2013-06-25 06:11:00,67.9,66.1,30.10,SE,125,0.0,-999.0,94,0.00,,,0.00,Wunderground v.1.12,2013-06-25 10:11:00,
2013-06-25 06:16:00,68.1,66.3,30.10,SE,125,0.0,-999.0,94,0.00,,,0.00,Wunderground v.1.12,2013-06-25 10:16:00,
2013-06-25 06:21:00,68.1,66.3,30.10,SE,125,0.0,-999.0,94,0.00,,,0.00,Wunderground v.1.12,2013-06-25 10:21:00,
2013-06-25 06:26:00,68.1,66.3,30.11,SE,125,0.0,-999.0,94,0.00,,,0.00,Wunderground v.1.12,2013-06-25 10:26:00,
2013-06-25 06:31:00,68.3,66.5,30.11,SE,125,0.0,-999.0,94,0.00,,,0.00,Wunderground v.1.12,2013-06-25 10:31:00,
2013-06-25 06:36:00,68.3,66.5,30.11,SE,125,0.0,-999.0,94,0.00,,,0.00,Wunderground v.1.12,2013-06-25 10:36:00,
2013-06-25 06:41:00,68.3,66.5,30.10,SE,125,0.0,-999.0,94,0.00,,,0.00,Wunderground v.1.12,2013-06-25 10:41:00,
2013-06-25 06:46:00,68.3,66.5,30.10,SE,125,0.0,-999.0,94,0.00,,,0.00,Wunderground v.1.12,2013-06-25 10:46:00,
2013-06-25 06:51:00,68.3,66.5,30.10,SE,125,0.0,-999.0,94,0.00,,,0.00,Wunderground v.1.12,2013-06-25 10:51:00,
2013-06-25 06:56:00,68.3,66.5,30.11,SE,125,0.0,-999.0,94,0.00,,,0.00,Wunderground v.1.12,2013-06-25 10:56:00,
2013-06-25 07:01:00,68.4,66.6,30.11,SE,125,0.0,-999.0,94,0.00,,,0.00,Wunderground v.1.12,2013-06-25 11:01:00,
2013-06-25 07:06:00,68.4,66.6,30.11,SE,125,0.0,-999.0,94,0.00,,,0.00,Wunderground v.1.12,2013-06-25 11:06:00,
2013-06-25 07:11:00,68.4,66.6,30.10,SE,125,0.0,-999.0,94,0.00,,,0.00,Wunderground v.1.12,2013-06-25 11:11:00,
2013-06-25 07:16:00,68.4,66.6,30.10,SE,125,0.0,-999.0,94,0.00,,,0.00,Wunderground v.1.12,2013-06-25 11:16:00,
2013-06-25 07:21:00,68.4,66.6,30.10,SE,125,0.0,-999.0,94,0.00,,,0.00,Wunderground v.1.12,2013-06-25 11:21:00,
2013-06-25 07:26:00,68.6,66.8,30.11,SE,125,0.0,-999.0,94,0.00,,,0.00,Wunderground v.1.12,2013-06-25 11:26:00,
2013-06-25 07:31:00,68.6,66.8,30.11,SE,125,0.0,-999.0,94,0.00,,,0.00,Wunderground v.1.12,2013-06-25 11:31:00,
2013-06-25 07:36:00,68.8,67.0,30.11,SE,125,0.0,-999.0,94,0.00,,,0.00,Wunderground v.1.12,2013-06-25 11:36:00,
2013-06-25 07:41:00,68.9,67.1,30.11,SE,125,0.0,-999.0,94,0.00,,,0.00,Wunderground v.1.12,2013-06-25 11:41:00,
2013-06-25 07:47:00,69.1,67.3,30.11,SE,125,0.0,-999.0,94,0.00,,,0.00,Wunderground v.1.12,2013-06-25 11:47:00,
2013-06-25 07:52:00,69.3,67.5,30.11,SE,125,0.0,-999.0,94,0.00,,,0.00,Wunderground v.1.12,2013-06-25 11:52:00,
2013-06-25 07:57:00,69.4,67.6,30.11,SE,125,0.0,-999.0,94,0.00,,,0.00,Wunderground v.1.12,2013-06-25 11:57:00,
2013-06-25 08:02:00,69.8,68.3,30.11,SE,125,0.0,-999.0,95,0.00,,,0.00,Wunderground v.1.12,2013-06-25 12:02:00,
2013-06-25 08:07:00,69.9,68.4,30.11,SE,125,0.0,-999.0,95,0.00,,,0.00,Wunderground v.1.12,2013-06-25 12:07:00,
2013-06-25 08:12:00,70.3,68.8,30.11,SE,125,0.0,-999.0,95,0.00,,,0.00,Wunderground v.1.12,2013-06-25 12:12:00,
2013-06-25 08:17:00,70.6,69.1,30.11,SE,125,0.0,-999.0,95,0.00,,,0.00,Wunderground v.1.12,2013-06-25 12:17:00,
2013-06-25 08:22:00,70.8,69.3,30.11,SE,125,0.0,-999.0,95,0.00,,,0.00,Wunderground v.1.12,2013-06-25 12:22:00,
2013-06-25 08:27:00,71.1,69.6,30.12,SE,125,0.0,-999.0,95,0.00,,,0.00,Wunderground v.1.12,2013-06-25 12:27:00,
2013-06-25 08:32:00,71.3,69.8,30.12,SE,125,0.0,-999.0,95,0.00,,,0.00,Wunderground v.1.12,2013-06-25 12:32:00,
2013-06-25 08:37:00,71.6,70.1,30.12,SE,125,0.0,-999.0,95,0.00,,,0.00,Wunderground v.1.12,2013-06-25 12:37:00,
2013-06-25 08:43:00,72.0,70.5,30.12,SE,125,0.0,-999.0,95,0.00,,,0.00,Wunderground v.1.12,2013-06-25 12:43:00,
2013-06-25 08:49:00,72.1,70.6,30.12,SE,125,0.0,-999.0,95,0.00,,,0.00,Wunderground v.1.12,2013-06-25 12:49:00,
2013-06-25 08:54:00,72.3,70.8,30.12,SE,125,0.0,-999.0,95,0.00,,,0.00,Wunderground v.1.12,2013-06-25 12:54:00,
2013-06-25 08:59:00,72.5,71.0,30.12,SE,125,0.0,-999.0,95,0.00,,,0.00,Wunderground v.1.12,2013-06-25 12:59:00,
2013-06-25 09:04:00,72.7,71.2,30.12,ESE,123,0.0,-999.0,95,0.00,,,0.00,Wunderground v.1.12,2013-06-25 13:04:00,
2013-06-25 09:09:00,72.8,71.3,30.12,ESE,123,0.0,-999.0,95,0.00,,,0.00,Wunderground v.1.12,2013-06-25 13:09:00,
2013-06-25 09:14:00,73.0,71.2,30.13,ESE,123,0.0,-999.0,94,0.00,,,0.00,Wunderground v.1.12,2013-06-25 13:14:00,
2013-06-25 09:19:00,73.0,71.2,30.13,NNW,348,0.0,-999.0,94,0.00,,,0.00,Wunderground v.1.12,2013-06-25 13:19:00,
2013-06-25 09:24:00,73.2,71.4,30.13,NNW,348,0.0,-999.0,94,0.00,,,0.00,Wunderground v.1.12,2013-06-25 13:24:00,
2013-06-25 09:29:00,73.3,71.5,30.13,NNW,348,0.0,-999.0,94,0.00,,,0.00,Wunderground v.1.12,2013-06-25 13:29:00,
2013-06-25 09:35:00,73.7,71.9,30.13,NNW,348,0.0,-999.0,94,0.00,,,0.00,Wunderground v.1.12,2013-06-25 13:35:00,
2013-06-25 09:40:00,73.9,71.7,30.12,NNW,348,0.0,-999.0,93,0.00,,,0.00,Wunderground v.1.12,2013-06-25 13:40:00,
2013-06-25 09:45:00,74.2,72.0,30.12,NNW,348,0.0,-999.0,93,0.00,,,0.00,Wunderground v.1.12,2013-06-25 13:45:00,
2013-06-25 09:50:00,74.6,72.1,30.12,NNW,348,0.0,-999.0,92,0.00,,,0.00,Wunderground v.1.12,2013-06-25 13:50:00,
2013-06-25 09:55:00,75.1,72.6,30.12,NNW,348,0.0,-999.0,92,0.00,,,0.00,Wunderground v.1.12,2013-06-25 13:55:00,
2013-06-25 10:00:00,75.4,72.6,30.12,NNW,348,0.0,-999.0,91,0.00,,,0.00,Wunderground v.1.12,2013-06-25 14:00:00,
2013-06-25 10:05:00,75.6,72.1,30.12,NNW,348,0.0,-999.0,89,0.00,,,0.00,Wunderground v.1.12,2013-06-25 14:05:00,
2013-06-25 10:10:00,76.0,72.2,30.12,NNW,348,0.0,-999.0,88,0.00,,,0.00,Wunderground v.1.12,2013-06-25 14:10:00,
2013-06-25 10:15:00,76.5,72.0,30.12,NNW,348,0.0,-999.0,86,0.00,,,0.00,Wunderground v.1.12,2013-06-25 14:15:00,
2013-06-25 10:20:00,76.8,71.6,30.12,NNW,348,0.0,-999.0,84,0.00,,,0.00,Wunderground v.1.12,2013-06-25 14:20:00,
2013-06-25 10:25:00,77.4,71.1,30.12,NNW,348,0.0,-999.0,81,0.00,,,0.00,Wunderground v.1.12,2013-06-25 14:25:00,
2013-06-25 10:30:00,77.7,71.0,30.12,NNW,348,0.0,-999.0,80,0.00,,,0.00,Wunderground v.1.12,2013-06-25 14:30:00,
2013-06-25 10:35:00,78.1,71.1,30.12,NNW,348,0.0,-999.0,79,0.00,,,0.00,Wunderground v.1.12,2013-06-25 14:35:00,
2013-06-25 10:40:00,78.5,70.7,30.12,NNW,348,0.0,-999.0,77,0.00,,,0.00,Wunderground v.1.12,2013-06-25 14:40:00,
2013-06-25 10:45:00,78.8,69.8,30.12,North,349,0.0,-999.0,74,0.00,,,0.00,Wunderground v.1.12,2013-06-25 14:45:00,
2013-06-25 10:50:00,79.6,71.0,30.12,North,349,0.0,-999.0,75,0.00,,,0.00,Wunderground v.1.12,2013-06-25 14:50:00,
2013-06-25 10:55:00,80.1,71.1,30.11,North,349,0.0,-999.0,74,0.00,,,0.00,Wunderground v.1.12,2013-06-25 14:55:00,
2013-06-25 11:00:00,80.5,71.4,30.11,North,349,0.0,-999.0,74,0.00,,,0.00,Wunderground v.1.12,2013-06-25 15:00:00,
2013-06-25 11:05:00,80.7,71.2,30.11,North,349,0.0,-999.0,73,0.00,,,0.00,Wunderground v.1.12,2013-06-25 15:05:00,
2013-06-25 11:10:00,81.1,70.8,30.11,North,349,0.0,-999.0,71,0.00,,,0.00,Wunderground v.1.12,2013-06-25 15:10:00,
2013-06-25 11:15:00,81.2,70.1,30.11,North,349,0.0,-999.0,69,0.00,,,0.00,Wunderground v.1.12,2013-06-25 15:15:00,
2013-06-25 11:20:00,81.6,70.9,30.11,North,349,0.0,-999.0,70,0.00,,,0.00,Wunderground v.1.12,2013-06-25 15:20:00,
2013-06-25 11:26:00,81.8,70.6,30.11,NNW,338,0.0,-999.0,69,0.00,,,0.00,Wunderground v.1.12,2013-06-25 15:26:00,
2013-06-25 11:31:00,81.8,70.6,30.11,NNW,336,0.0,-999.0,69,0.00,,,0.00,Wunderground v.1.12,2013-06-25 15:31:00,
2013-06-25 11:36:00,81.8,70.2,30.11,NNW,331,0.0,-999.0,68,0.00,,,0.00,Wunderground v.1.12,2013-06-25 15:36:00,
2013-06-25 11:41:00,82.0,70.8,30.11,NNW,331,0.0,-999.0,69,0.00,,,0.00,Wunderground v.1.12,2013-06-25 15:41:00,
2013-06-25 11:46:00,82.0,70.0,30.11,NNW,329,0.0,-999.0,67,0.00,,,0.00,Wunderground v.1.12,2013-06-25 15:46:00,
2013-06-25 11:51:00,82.2,71.0,30.11,NNW,329,0.0,-999.0,69,0.00,,,0.00,Wunderground v.1.12,2013-06-25 15:51:00,
2013-06-25 11:56:00,82.2,70.1,30.11,NNW,329,0.0,-999.0,67,0.00,,,0.00,Wunderground v.1.12,2013-06-25 15:56:00,
2013-06-25 12:01:00,82.4,69.4,30.11,NW,308,0.0,-999.0,65,0.00,,,0.00,Wunderground v.1.12,2013-06-25 16:01:00,
2013-06-25 12:06:00,82.6,69.6,30.11,North,2,0.0,-999.0,65,0.00,,,0.00,Wunderground v.1.12,2013-06-25 16:06:00,
2013-06-25 12:11:00,83.0,70.0,30.10,North,2,0.0,-999.0,65,0.00,,,0.00,Wunderground v.1.12,2013-06-25 16:11:00,
2013-06-25 12:16:00,83.4,70.4,30.10,North,353,0.0,-999.0,65,0.00,,,0.00,Wunderground v.1.12,2013-06-25 16:16:00,
2013-06-25 12:21:00,83.8,69.9,30.10,North,358,0.0,-999.0,63,0.00,,,0.00,Wunderground v.1.12,2013-06-25 16:21:00,
2013-06-25 12:26:00,84.1,70.6,30.10,North,356,0.0,-999.0,64,0.00,,,0.00,Wunderground v.1.12,2013-06-25 16:26:00,
2013-06-25 12:31:00,84.5,71.0,30.10,NNE,14,0.0,-999.0,64,0.00,,,0.00,Wunderground v.1.12,2013-06-25 16:31:00,
2013-06-25 12:36:00,84.7,70.7,30.10,North,9,0.0,-999.0,63,0.00,,,0.00,Wunderground v.1.12,2013-06-25 16:36:00,
2013-06-25 12:41:00,85.3,71.7,30.09,North,9,0.0,-999.0,64,0.00,,,0.00,Wunderground v.1.12,2013-06-25 16:41:00,
2013-06-25 12:46:00,85.5,70.0,30.09,North,9,0.0,-999.0,60,0.00,,,0.00,Wunderground v.1.12,2013-06-25 16:46:00,
2013-06-25 12:51:00,85.9,71.4,30.09,North,9,0.0,-999.0,62,0.00,,,0.00,Wunderground v.1.12,2013-06-25 16:51:00,
2013-06-25 12:56:00,86.3,71.3,30.09,North,10,0.0,-999.0,61,0.00,,,0.00,Wunderground v.1.12,2013-06-25 16:56:00,
2013-06-25 13:01:00,86.5,71.5,30.09,NNW,336,0.0,-999.0,61,0.00,,,0.00,Wunderground v.1.12,2013-06-25 17:01:00,
2013-06-25 13:06:00,87.0,71.9,30.09,NNW,336,0.0,-999.0,61,0.00,,,0.00,Wunderground v.1.12,2013-06-25 17:06:00,
2013-06-25 13:11:00,87.4,70.3,30.08,NNW,336,0.0,-999.0,57,0.00,,,0.00,Wunderground v.1.12,2013-06-25 17:11:00,
2013-06-25 13:16:00,87.6,70.0,30.08,NNW,336,0.0,-999.0,56,0.00,,,0.00,Wunderground v.1.12,2013-06-25 17:16:00,
2013-06-25 13:21:00,87.6,68.9,30.08,NW,315,0.0,-999.0,54,0.00,,,0.00,Wunderground v.1.12,2013-06-25 17:21:00,
2013-06-25 13:26:00,88.0,70.3,30.07,NW,315,0.0,-999.0,56,0.00,,,0.00,Wunderground v.1.12,2013-06-25 17:26:00,
2013-06-25 13:31:00,88.0,69.8,30.07,NNW,345,0.0,-999.0,55,0.00,,,0.00,Wunderground v.1.12,2013-06-25 17:31:00,
2013-06-25 13:36:00,88.0,71.4,30.07,NNW,345,0.0,-999.0,58,0.00,,,0.00,Wunderground v.1.12,2013-06-25 17:36:00,
2013-06-25 13:41:00,88.2,71.0,30.07,NNW,345,0.0,-999.0,57,0.00,,,0.00,Wunderground v.1.12,2013-06-25 17:41:00,
2013-06-25 13:46:00,88.2,70.5,30.07,North,355,0.0,-999.0,56,0.00,,,0.00,Wunderground v.1.12,2013-06-25 17:46:00,
2013-06-25 13:51:00,88.2,70.0,30.07,North,355,0.0,-999.0,55,0.00,,,0.00,Wunderground v.1.12,2013-06-25 17:51:00,
2013-06-25 13:56:00,88.0,69.3,30.07,North,355,0.0,-999.0,54,0.00,,,0.00,Wunderground v.1.12,2013-06-25 17:56:00,
2013-06-25 14:01:00,88.0,69.3,30.07,North,355,0.0,-999.0,54,0.00,,,0.00,Wunderground v.1.12,2013-06-25 18:01:00,
2013-06-25 14:06:00,87.8,70.7,30.07,North,355,0.0,-999.0,57,0.00,,,0.00,Wunderground v.1.12,2013-06-25 18:06:00,
2013-06-25 14:11:00,87.4,70.3,30.05,North,355,0.0,-999.0,57,0.00,,,0.00,Wunderground v.1.12,2013-06-25 18:11:00,
2013-06-25 14:16:00,87.2,73.1,30.05,North,355,0.0,-999.0,63,0.00,,,0.00,Wunderground v.1.12,2013-06-25 18:16:00,
2013-06-25 14:21:00,86.5,72.4,30.05,North,355,0.0,-999.0,63,0.00,,,0.00,Wunderground v.1.12,2013-06-25 18:21:00,
2013-06-25 14:27:00,86.5,71.0,30.05,North,355,0.0,-999.0,60,0.00,,,0.00,Wunderground v.1.12,2013-06-25 18:27:00,
2013-06-25 14:32:00,86.1,72.5,30.05,North,355,0.0,-999.0,64,0.00,,,0.00,Wunderground v.1.12,2013-06-25 18:32:00,
2013-06-25 14:37:00,85.9,72.8,30.05,North,355,0.0,-999.0,65,0.00,,,0.00,Wunderground v.1.12,2013-06-25 18:37:00,
2013-06-25 14:42:00,85.5,72.4,30.05,North,355,0.0,-999.0,65,0.00,,,0.00,Wunderground v.1.12,2013-06-25 18:42:00,
2013-06-25 14:47:00,85.3,72.6,30.05,North,355,0.0,-999.0,66,0.00,,,0.00,Wunderground v.1.12,2013-06-25 18:47:00,
2013-06-25 14:52:00,84.7,72.5,30.05,North,353,0.0,-999.0,67,0.00,,,0.00,Wunderground v.1.12,2013-06-25 18:52:00,
2013-06-25 14:58:00,84.3,71.7,30.05,North,353,0.0,-999.0,66,0.00,,,0.00,Wunderground v.1.12,2013-06-25 18:58:00,
2013-06-25 15:03:00,84.0,71.0,30.05,North,353,0.0,-999.0,65,0.00,,,0.00,Wunderground v.1.12,2013-06-25 19:03:00,
2013-06-25 15:08:00,83.8,70.8,30.05,SE,127,0.0,-999.0,65,0.00,,,0.00,Wunderground v.1.12,2013-06-25 19:08:00,
2013-06-25 15:13:00,83.8,70.8,30.05,East,86,0.0,-999.0,65,0.00,,,0.00,Wunderground v.1.12,2013-06-25 19:13:00,
2013-06-25 15:18:00,83.8,71.7,30.05,East,88,0.0,-999.0,67,0.00,,,0.00,Wunderground v.1.12,2013-06-25 19:18:00,
2013-06-25 15:23:00,84.0,71.4,30.05,East,89,0.0,-999.0,66,0.00,,,0.00,Wunderground v.1.12,2013-06-25 19:23:00,
2013-06-25 15:29:00,83.6,68.7,30.05,ENE,74,0.0,-999.0,61,0.00,,,0.00,Wunderground v.1.12,2013-06-25 19:29:00,
2013-06-25 15:34:00,83.8,70.3,30.05,East,85,0.0,-999.0,64,0.00,,,0.00,Wunderground v.1.12,2013-06-25 19:34:00,
2013-06-25 15:39:00,83.8,70.3,30.05,East,86,0.0,-999.0,64,0.00,,,0.00,Wunderground v.1.12,2013-06-25 19:39:00,
2013-06-25 15:44:00,83.8,70.8,30.05,East,86,0.0,-999.0,65,0.00,,,0.00,Wunderground v.1.12,2013-06-25 19:44:00,
2013-06-25 15:49:00,84.0,71.0,30.05,NNE,16,0.0,-999.0,65,0.00,,,0.00,Wunderground v.1.12,2013-06-25 19:49:00,
2013-06-25 15:54:00,84.0,69.6,30.05,NNW,336,0.0,-999.0,62,0.00,,,0.00,Wunderground v.1.12,2013-06-25 19:54:00,
2013-06-25 15:59:00,84.3,69.9,30.04,NNW,336,0.0,-999.0,62,0.00,,,0.00,Wunderground v.1.12,2013-06-25 19:59:00,
2013-06-25 16:04:00,84.5,68.1,30.04,WNW,298,0.0,-999.0,58,0.00,,,0.00,Wunderground v.1.12,2013-06-25 20:04:00,
2013-06-25 16:09:00,84.9,69.0,30.04,WNW,295,0.0,-999.0,59,0.00,,,0.00,Wunderground v.1.12,2013-06-25 20:09:00,
2013-06-25 16:14:00,85.1,68.7,30.03,WNW,295,0.0,-999.0,58,0.00,,,0.00,Wunderground v.1.12,2013-06-25 20:14:00,
2013-06-25 16:19:00,85.5,68.5,30.03,WNW,295,0.0,-999.0,57,0.00,,,0.00,Wunderground v.1.12,2013-06-25 20:19:00,
2013-06-25 16:24:00,85.7,69.2,30.03,WNW,295,0.0,-999.0,58,0.00,,,0.00,Wunderground v.1.12,2013-06-25 20:24:00,
2013-06-25 16:30:00,85.7,68.7,30.02,WNW,295,0.0,-999.0,57,0.00,,,0.00,Wunderground v.1.12,2013-06-25 20:30:00,
2013-06-25 16:35:00,85.7,69.2,30.02,WNW,295,0.0,-999.0,58,0.00,,,0.00,Wunderground v.1.12,2013-06-25 20:35:00,
2013-06-25 16:40:00,85.5,68.5,30.01,SE,134,0.0,-999.0,57,0.00,,,0.00,Wunderground v.1.12,2013-06-25 20:40:00,
2013-06-25 16:45:00,85.5,69.0,30.01,SE,132,0.0,-999.0,58,0.00,,,0.00,Wunderground v.1.12,2013-06-25 20:45:00,
2013-06-25 16:50:00,85.5,69.0,30.01,SE,130,0.0,-999.0,58,0.00,,,0.00,Wunderground v.1.12,2013-06-25 20:50:00,
2013-06-25 16:55:00,85.3,68.8,30.00,SE,130,0.0,-999.0,58,0.00,,,0.00,Wunderground v.1.12,2013-06-25 20:55:00,
2013-06-25 17:00:00,85.3,69.3,30.00,SE,130,0.0,-999.0,59,0.00,,,0.00,Wunderground v.1.12,2013-06-25 21:00:00,
2013-06-25 17:05:00,85.1,69.2,30.00,ESE,112,0.0,-999.0,59,0.00,,,0.00,Wunderground v.1.12,2013-06-25 21:05:00,
2013-06-25 17:10:00,84.9,69.5,30.00,ESE,112,0.0,-999.0,60,0.00,,,0.00,Wunderground v.1.12,2013-06-25 21:10:00,
2013-06-25 17:15:00,84.7,70.2,30.00,ESE,112,0.0,-999.0,62,0.00,,,0.00,Wunderground v.1.12,2013-06-25 21:15:00,
2013-06-25 17:20:00,84.1,70.6,30.00,ESE,112,0.0,-999.0,64,0.00,,,0.00,Wunderground v.1.12,2013-06-25 21:20:00,
2013-06-25 17:25:00,84.0,70.5,30.00,ESE,112,0.0,-999.0,64,0.00,,,0.00,Wunderground v.1.12,2013-06-25 21:25:00,
2013-06-25 17:30:00,83.8,70.8,30.00,ESE,112,0.0,-999.0,65,0.00,,,0.00,Wunderground v.1.12,2013-06-25 21:30:00,
2013-06-25 17:35:00,83.2,70.7,30.00,ESE,112,0.0,-999.0,66,0.00,,,0.00,Wunderground v.1.12,2013-06-25 21:35:00,
2013-06-25 17:40:00,82.8,70.3,30.00,ESE,112,0.0,-999.0,66,0.00,,,0.00,Wunderground v.1.12,2013-06-25 21:40:00,
2013-06-25 17:45:00,82.6,71.0,30.00,ESE,112,0.0,-999.0,68,0.00,,,0.00,Wunderground v.1.12,2013-06-25 21:45:00,
2013-06-25 17:50:00,82.2,71.0,30.00,ESE,112,0.0,-999.0,69,0.00,,,0.00,Wunderground v.1.12,2013-06-25 21:50:00,
2013-06-25 17:55:00,82.0,71.2,30.00,ESE,112,0.0,-999.0,70,0.00,,,0.00,Wunderground v.1.12,2013-06-25 21:55:00,
2013-06-25 18:00:00,81.8,71.5,30.00,ESE,112,0.0,-999.0,71,0.00,,,0.00,Wunderground v.1.12,2013-06-25 22:00:00,
2013-06-25 18:05:00,81.6,71.3,30.00,ESE,112,0.0,-999.0,71,0.00,,,0.00,Wunderground v.1.12,2013-06-25 22:05:00,
2013-06-25 18:10:00,81.4,71.1,30.01,ESE,112,0.0,-999.0,71,0.00,,,0.00,Wunderground v.1.12,2013-06-25 22:10:00,
2013-06-25 18:15:00,81.2,71.3,30.01,ESE,112,0.0,-999.0,72,0.00,,,0.00,Wunderground v.1.12,2013-06-25 22:15:00,
2013-06-25 18:20:00,81.1,71.6,30.01,ESE,112,0.0,-999.0,73,0.00,,,0.00,Wunderground v.1.12,2013-06-25 22:20:00,
2013-06-25 18:25:00,80.9,71.4,30.01,ESE,112,0.0,-999.0,73,0.00,,,0.00,Wunderground v.1.12,2013-06-25 22:25:00,
2013-06-25 18:30:00,80.7,71.6,30.01,ESE,112,0.0,-999.0,74,0.00,,,0.00,Wunderground v.1.12,2013-06-25 22:30:00,
2013-06-25 18:35:00,80.5,71.4,30.01,ESE,112,0.0,-999.0,74,0.00,,,0.00,Wunderground v.1.12,2013-06-25 22:35:00,
2013-06-25 18:40:00,80.3,72.0,30.01,ESE,112,0.0,-999.0,76,0.00,,,0.00,Wunderground v.1.12,2013-06-25 22:40:00,
2013-06-25 18:45:00,80.3,71.6,30.01,ESE,112,0.0,-999.0,75,0.00,,,0.00,Wunderground v.1.12,2013-06-25 22:45:00,
2013-06-25 18:50:00,80.1,71.1,30.01,ESE,112,0.0,-999.0,74,0.00,,,0.00,Wunderground v.1.12,2013-06-25 22:50:00,
2013-06-25 18:55:00,80.1,71.5,30.00,ESE,112,0.0,-999.0,75,0.00,,,0.00,Wunderground v.1.12,2013-06-25 22:55:00,
2013-06-25 19:00:00,79.9,71.3,30.00,ESE,112,0.0,-999.0,75,0.00,,,0.00,Wunderground v.1.12,2013-06-25 23:00:00,
2013-06-25 19:05:00,79.9,71.3,30.00,ESE,112,0.0,-999.0,75,0.00,,,0.00,Wunderground v.1.12,2013-06-25 23:05:00,
2013-06-25 19:10:00,79.9,71.7,30.00,ESE,112,0.0,-999.0,76,0.00,,,0.00,Wunderground v.1.12,2013-06-25 23:10:00,
2013-06-25 19:15:00,79.9,71.7,30.00,ESE,112,0.0,-999.0,76,0.00,,,0.00,Wunderground v.1.12,2013-06-25 23:15:00,
2013-06-25 19:21:00,79.8,71.2,30.00,ESE,112,0.0,-999.0,75,0.00,,,0.00,Wunderground v.1.12,2013-06-25 23:21:00,
2013-06-25 19:26:00,79.8,70.8,30.00,ESE,112,0.0,-999.0,74,0.00,,,0.00,Wunderground v.1.12,2013-06-25 23:26:00,
2013-06-25 19:31:00,79.8,71.2,30.00,ESE,112,0.0,-999.0,75,0.00,,,0.00,Wunderground v.1.12,2013-06-25 23:31:00,
2013-06-25 19:36:00,79.8,71.2,30.00,ESE,112,0.0,-999.0,75,0.00,,,0.00,Wunderground v.1.12,2013-06-25 23:36:00,
2013-06-25 19:41:00,79.8,70.8,30.00,ESE,112,0.0,-999.0,74,0.00,,,0.00,Wunderground v.1.12,2013-06-25 23:41:00,
2013-06-25 19:46:00,79.8,71.2,30.00,ESE,112,0.0,-999.0,75,0.00,,,0.00,Wunderground v.1.12,2013-06-25 23:46:00,
2013-06-25 19:51:00,79.8,70.8,30.00,ESE,112,0.0,-999.0,74,0.00,,,0.00,Wunderground v.1.12,2013-06-25 23:51:00,
2013-06-25 19:56:00,79.6,70.2,30.00,ESE,112,0.0,-999.0,73,0.00,,,0.00,Wunderground v.1.12,2013-06-25 23:56:00,
2013-06-25 20:01:00,79.6,70.2,30.00,ESE,112,0.0,-999.0,73,0.00,,,0.00,Wunderground v.1.12,2013-06-26 00:01:00,
2013-06-25 20:06:00,79.6,70.2,30.00,ESE,112,0.0,-999.0,73,0.00,,,0.00,Wunderground v.1.12,2013-06-26 00:06:00,
2013-06-25 20:11:00,79.6,70.2,29.99,ESE,112,0.0,-999.0,73,0.00,,,0.00,Wunderground v.1.12,2013-06-26 00:11:00,
2013-06-25 20:16:00,79.4,70.4,29.99,ESE,112,0.0,-999.0,74,0.00,,,0.00,Wunderground v.1.12,2013-06-26 00:16:00,
2013-06-25 20:21:00,79.2,70.2,29.99,ESE,112,0.0,-999.0,74,0.00,,,0.00,Wunderground v.1.12,2013-06-26 00:21:00,
2013-06-25 20:26:00,79.2,70.2,29.99,ESE,112,0.0,-999.0,74,0.00,,,0.00,Wunderground v.1.12,2013-06-26 00:26:00,
2013-06-25 20:31:00,79.0,70.0,29.99,ESE,112,0.0,-999.0,74,0.00,,,0.00,Wunderground v.1.12,2013-06-26 00:31:00,
2013-06-25 20:36:00,78.8,70.2,29.99,ESE,112,0.0,-999.0,75,0.00,,,0.00,Wunderground v.1.12,2013-06-26 00:36:00,
2013-06-25 20:41:00,78.6,70.0,30.00,ESE,112,0.0,-999.0,75,0.00,,,0.00,Wunderground v.1.12,2013-06-26 00:41:00,
2013-06-25 20:46:00,78.5,69.9,30.00,ESE,112,0.0,-999.0,75,0.00,,,0.00,Wunderground v.1.12,2013-06-26 00:46:00,
2013-06-25 20:51:00,78.3,69.7,30.00,ESE,112,0.0,-999.0,75,0.00,,,0.00,Wunderground v.1.12,2013-06-26 00:51:00,
2013-06-25 20:56:00,78.1,69.5,30.00,ESE,112,0.0,-999.0,75,0.00,,,0.00,Wunderground v.1.12,2013-06-26 00:56:00,
2013-06-25 21:01:00,77.7,69.5,30.00,ESE,112,0.0,-999.0,76,0.00,,,0.00,Wunderground v.1.12,2013-06-26 01:01:00,
2013-06-25 21:06:00,77.6,69.4,30.00,ESE,112,0.0,-999.0,76,0.00,,,0.00,Wunderground v.1.12,2013-06-26 01:06:00,
2013-06-25 21:11:00,77.2,69.4,30.00,ESE,112,0.0,-999.0,77,0.00,,,0.00,Wunderground v.1.12,2013-06-26 01:11:00,
2013-06-25 21:16:00,77.0,69.2,30.00,ESE,112,0.0,-999.0,77,0.00,,,0.00,Wunderground v.1.12,2013-06-26 01:16:00,
2013-06-25 21:21:00,76.7,68.9,30.00,ESE,112,0.0,-999.0,77,0.00,,,0.00,Wunderground v.1.12,2013-06-26 01:21:00,
2013-06-25 21:26:00,76.5,68.7,30.00,ESE,112,0.0,-999.0,77,0.00,,,0.00,Wunderground v.1.12,2013-06-26 01:26:00,
2013-06-25 21:31:00,76.3,68.9,30.00,ESE,112,0.0,-999.0,78,0.00,,,0.00,Wunderground v.1.12,2013-06-26 01:31:00,
2013-06-25 21:36:00,76.0,68.6,30.00,ESE,112,0.0,-999.0,78,0.00,,,0.00,Wunderground v.1.12,2013-06-26 01:36:00,
2013-06-25 21:41:00,75.8,68.8,30.00,ESE,112,0.0,-999.0,79,0.00,,,0.00,Wunderground v.1.12,2013-06-26 01:41:00,
2013-06-25 21:46:00,75.6,68.6,30.00,ESE,112,0.0,-999.0,79,0.00,,,0.00,Wunderground v.1.12,2013-06-26 01:46:00,
2013-06-25 21:51:00,75.4,68.8,30.00,ESE,112,0.0,-999.0,80,0.00,,,0.00,Wunderground v.1.12,2013-06-26 01:51:00,
2013-06-25 21:56:00,75.3,68.7,30.01,ESE,112,0.0,-999.0,80,0.00,,,0.00,Wunderground v.1.12,2013-06-26 01:56:00,
2013-06-25 22:01:00,74.9,68.7,30.01,ESE,112,0.0,-999.0,81,0.00,,,0.00,Wunderground v.1.12,2013-06-26 02:01:00,
2013-06-25 22:06:00,74.7,68.5,30.01,ESE,112,0.0,-999.0,81,0.00,,,0.00,Wunderground v.1.12,2013-06-26 02:06:00,
2013-06-25 22:11:00,74.6,68.7,30.01,ESE,112,0.0,-999.0,82,0.00,,,0.00,Wunderground v.1.12,2013-06-26 02:11:00,
2013-06-25 22:16:00,74.4,68.5,30.01,ESE,112,0.0,-999.0,82,0.00,,,0.00,Wunderground v.1.12,2013-06-26 02:16:00,
2013-06-25 22:21:00,74.2,68.3,30.01,ESE,112,0.0,-999.0,82,0.00,,,0.00,Wunderground v.1.12,2013-06-26 02:21:00,
2013-06-25 22:26:00,74.0,68.2,30.02,ESE,112,0.0,-999.0,82,0.00,,,0.00,Wunderground v.1.12,2013-06-26 02:26:00,
2013-06-25 22:31:00,73.9,68.1,30.02,ESE,112,0.0,-999.0,82,0.00,,,0.00,Wunderground v.1.12,2013-06-26 02:31:00,
2013-06-25 22:36:00,73.7,68.2,30.02,ESE,112,0.0,-999.0,83,0.00,,,0.00,Wunderground v.1.12,2013-06-26 02:36:00,
2013-06-25 22:41:00,73.7,68.2,30.02,ESE,112,0.0,-999.0,83,0.00,,,0.00,Wunderground v.1.12,2013-06-26 02:41:00,
2013-06-25 22:46:00,73.5,68.0,30.02,ESE,112,0.0,-999.0,83,0.00,,,0.00,Wunderground v.1.12,2013-06-26 02:46:00,
2013-06-25 22:51:00,73.5,68.0,30.02,ESE,112,0.0,-999.0,83,0.00,,,0.00,Wunderground v.1.12,2013-06-26 02:51:00,
2013-06-25 22:56:00,73.3,67.8,30.02,ESE,112,0.0,-999.0,83,0.00,,,0.00,Wunderground v.1.12,2013-06-26 02:56:00,
2013-06-25 23:01:00,73.2,67.7,30.02,ESE,112,0.0,-999.0,83,0.00,,,0.00,Wunderground v.1.12,2013-06-26 03:01:00,
2013-06-25 23:07:00,73.2,68.1,30.02,ESE,112,0.0,-999.0,84,0.00,,,0.00,Wunderground v.1.12,2013-06-26 03:07:00,
2013-06-25 23:12:00,73.2,68.1,30.02,ESE,112,0.0,-999.0,84,0.00,,,0.00,Wunderground v.1.12,2013-06-26 03:12:00,
2013-06-25 23:17:00,73.0,67.9,30.02,ESE,112,0.0,-999.0,84,0.00,,,0.00,Wunderground v.1.12,2013-06-26 03:17:00,
2013-06-25 23:22:00,73.0,67.9,30.02,ESE,112,0.0,-999.0,84,0.00,,,0.00,Wunderground v.1.12,2013-06-26 03:22:00,
2013-06-25 23:27:00,73.0,67.9,30.01,ESE,112,0.0,-999.0,84,0.00,,,0.00,Wunderground v.1.12,2013-06-26 03:27:00,
2013-06-25 23:32:00,72.8,68.0,30.01,ESE,112,0.0,-999.0,85,0.00,,,0.00,Wunderground v.1.12,2013-06-26 03:32:00,
2013-06-25 23:37:00,72.8,68.0,30.01,ESE,112,0.0,-999.0,85,0.00,,,0.00,Wunderground v.1.12,2013-06-26 03:37:00,
2013-06-25 23:42:00,72.8,68.0,30.00,ESE,112,0.0,-999.0,85,0.00,,,0.00,Wunderground v.1.12,2013-06-26 03:42:00,
2013-06-25 23:47:00,72.7,68.3,30.00,ESE,112,0.0,-999.0,86,0.00,,,0.00,Wunderground v.1.12,2013-06-26 03:47:00,
2013-06-25 23:52:00,72.7,68.3,30.00,ESE,112,0.0,-999.0,86,0.00,,,0.00,Wunderground v.1.12,2013-06-26 03:52:00,
2013-06-25 23:57:00,72.5,68.1,30.00,ESE,112,0.0,-999.0,86,0.00,,,0.00,Wunderground v.1.12,2013-06-26 03:57:00,